createdAt,value
2023-05-19T00:01:00.382Z,60.67
2023-05-19T00:03:27.122Z,60.90
2023-05-19T00:05:54.470Z,60.63
2023-05-19T00:08:23.935Z,60.69
2023-05-19T00:10:50.939Z,60.84
2023-05-19T00:13:17.814Z,60.80
2023-05-19T00:15:44.764Z,61.20
2023-05-19T00:18:14.174Z,61.39
2023-05-19T00:20:41.390Z,61.53
2023-05-19T00:23:08.256Z,61.51
2023-05-19T00:25:34.949Z,61.43
2023-05-19T00:28:02.485Z,60.93
2023-05-19T00:30:32.425Z,61.09
2023-05-19T00:32:59.199Z,61.17
2023-05-19T00:35:26.058Z,60.78
2023-05-19T00:37:52.765Z,60.80
2023-05-19T00:40:19.486Z,61.15
2023-05-19T00:42:46.131Z,60.84
2023-05-19T00:45:12.788Z,60.84
2023-05-19T00:47:39.664Z,60.27
2023-05-19T00:50:06.615Z,60.65
2023-05-19T00:52:33.273Z,60.69
2023-05-19T00:54:59.959Z,60.83
2023-05-19T00:57:27.226Z,60.66
2023-05-19T00:59:54.184Z,60.41
2023-05-19T01:03:40.772Z,60.36
2023-05-19T01:06:07.959Z,60.26
2023-05-19T01:08:38.601Z,60.07
2023-05-19T01:11:06.600Z,60.64
2023-05-19T01:13:34.518Z,60.27
2023-05-19T01:16:07.876Z,60.53
2023-05-19T01:19:01.783Z,60.50
2023-05-19T01:21:36.621Z,60.47
2023-05-19T01:24:34.246Z,60.38
2023-05-19T01:27:10.178Z,60.21
2023-05-19T01:29:45.963Z,60.75
2023-05-19T01:32:18.805Z,60.50
2023-05-19T01:34:49.607Z,60.77
2023-05-19T01:37:17.565Z,60.81
2023-05-19T01:39:45.675Z,61.19
2023-05-19T01:42:14.362Z,60.85
2023-05-19T01:44:41.870Z,61.07
2023-05-19T01:47:13.264Z,60.98
2023-05-19T01:49:39.876Z,61.24
2023-05-19T01:52:06.692Z,61.56
2023-05-19T01:54:33.519Z,61.41
2023-05-19T01:57:27.535Z,61.18
2023-05-19T02:00:05.701Z,61.36
2023-05-19T02:02:32.326Z,61.48
2023-05-19T02:05:09.516Z,61.20
2023-05-19T02:07:51.644Z,61.17
2023-05-19T02:10:31.022Z,61.29
2023-05-19T02:13:04.343Z,61.67
2023-05-19T02:15:38.736Z,62.06
2023-05-19T02:18:09.447Z,62.62
2023-05-19T02:20:36.090Z,62.95
2023-05-19T02:23:02.757Z,63.15
2023-05-19T02:25:29.379Z,62.84
2023-05-19T02:27:55.999Z,62.70
2023-05-19T02:30:22.588Z,63.28
2023-05-19T02:32:49.288Z,63.35
2023-05-19T02:35:15.957Z,63.36
2023-05-19T02:37:42.614Z,63.77
2023-05-19T02:40:09.591Z,64.16
2023-05-19T02:42:36.316Z,64.03
2023-05-19T02:45:03.175Z,64.46
2023-05-19T02:47:29.863Z,64.41
2023-05-19T02:49:56.535Z,64.47
2023-05-19T02:52:23.119Z,64.44
2023-05-19T02:54:49.736Z,64.92
2023-05-19T02:57:16.300Z,64.57
2023-05-19T02:59:43.244Z,63.92
2023-05-19T03:02:09.905Z,64.02
2023-05-19T03:04:41.747Z,64.14
2023-05-19T03:07:13.445Z,64.06
2023-05-19T03:09:40.322Z,64.67
2023-05-19T03:12:07.754Z,64.40
2023-05-19T03:14:37.361Z,64.40
2023-05-19T03:17:04.237Z,64.41
2023-05-19T03:19:32.561Z,64.11
2023-05-19T03:21:59.336Z,64.16
2023-05-19T03:24:25.949Z,64.46
2023-05-19T03:26:52.653Z,64.60
2023-05-19T03:29:19.281Z,64.37
2023-05-19T03:31:46.027Z,64.00
2023-05-19T03:34:12.640Z,63.65
2023-05-19T03:36:40.012Z,63.78
2023-05-19T03:39:06.965Z,63.95
2023-05-19T03:41:33.823Z,63.92
2023-05-19T03:44:00.604Z,63.64
2023-05-19T03:46:27.300Z,64.74
2023-05-19T03:48:53.937Z,65.29
2023-05-19T03:51:20.627Z,66.54
2023-05-19T03:53:48.636Z,66.32
2023-05-19T03:56:18.125Z,66.07
2023-05-19T03:58:45.090Z,67.25
2023-05-19T04:01:11.952Z,67.54
2023-05-19T04:03:38.652Z,66.48
2023-05-19T04:06:05.459Z,65.90
2023-05-19T04:08:32.185Z,64.43
2023-05-19T04:10:58.810Z,63.79
2023-05-19T04:13:25.706Z,63.89
2023-05-19T04:15:52.574Z,62.95
2023-05-19T04:18:19.226Z,62.61
2023-05-19T04:20:45.862Z,62.70
2023-05-19T04:23:12.593Z,62.39
2023-05-19T04:25:40.873Z,62.69
2023-05-19T04:28:07.702Z,62.42
2023-05-19T04:30:34.897Z,62.78
2023-05-19T04:33:03.256Z,62.26
2023-05-19T04:35:30.003Z,62.21
2023-05-19T04:37:56.854Z,62.59
2023-05-19T04:40:23.912Z,62.48
2023-05-19T04:42:52.209Z,62.31
2023-05-19T04:45:18.861Z,62.71
2023-05-19T04:47:48.189Z,62.97
2023-05-19T04:50:16.449Z,63.25
2023-05-19T04:52:45.626Z,63.22
2023-05-19T04:55:13.366Z,62.92
2023-05-19T04:57:40.275Z,62.67
2023-05-19T05:00:12.358Z,62.94
2023-05-19T05:02:39.031Z,63.33
2023-05-19T05:05:06.195Z,63.17
2023-05-19T05:07:32.866Z,63.37
2023-05-19T05:09:59.748Z,63.06
2023-05-19T05:12:26.795Z,62.45
2023-05-19T05:14:53.688Z,61.90
2023-05-19T05:17:20.632Z,62.26
2023-05-19T05:19:48.546Z,62.24
2023-05-19T05:22:15.845Z,62.14
2023-05-19T05:24:42.604Z,62.50
2023-05-19T05:27:10.275Z,62.89
2023-05-19T05:29:37.125Z,62.67
2023-05-19T05:32:03.896Z,63.13
2023-05-19T05:34:30.968Z,62.59
2023-05-19T05:36:57.620Z,62.94
2023-05-19T05:39:24.203Z,62.62
2023-05-19T05:41:50.852Z,63.20
2023-05-19T05:44:17.513Z,62.29
2023-05-19T05:46:44.505Z,62.49
2023-05-19T05:49:12.562Z,61.79
2023-05-19T05:51:39.533Z,61.66
2023-05-19T05:54:07.273Z,61.54
2023-05-19T05:56:34.188Z,60.29
2023-05-19T05:59:00.768Z,59.90
2023-05-19T06:01:28.208Z,60.20
2023-05-19T06:03:54.817Z,59.92
2023-05-19T06:06:21.485Z,59.97
2023-05-19T06:08:48.113Z,59.87
2023-05-19T06:11:14.864Z,59.10
2023-05-19T06:13:41.558Z,58.87
2023-05-19T06:16:08.946Z,59.12
2023-05-19T06:18:35.823Z,58.16
2023-05-19T06:21:03.677Z,58.01
2023-05-19T06:23:30.958Z,57.58
2023-05-19T06:25:57.833Z,57.34
2023-05-19T06:28:24.410Z,58.28
2023-05-19T06:30:51.052Z,57.08
2023-05-19T06:33:17.667Z,56.49
2023-05-19T06:35:44.306Z,57.28
2023-05-19T06:38:11.020Z,57.56
2023-05-19T06:40:37.662Z,57.52
2023-05-19T06:43:05.036Z,57.71
2023-05-19T06:45:31.993Z,58.49
2023-05-19T06:47:58.711Z,58.13
2023-05-19T06:50:25.809Z,58.09
2023-05-19T06:52:52.992Z,58.83
2023-05-19T06:55:19.873Z,58.78
2023-05-19T06:57:46.587Z,58.48
2023-05-19T07:00:16.775Z,58.40
2023-05-19T07:02:45.391Z,58.77
2023-05-19T07:05:12.015Z,58.93
2023-05-19T07:07:38.681Z,59.45
2023-05-19T07:10:05.836Z,59.46
2023-05-19T07:12:32.462Z,59.42
2023-05-19T07:14:59.193Z,58.79
2023-05-19T07:17:26.038Z,59.18
2023-05-19T07:19:52.861Z,59.30
2023-05-19T07:22:19.576Z,59.22
2023-05-19T07:24:46.192Z,59.39
2023-05-19T07:27:12.806Z,58.66
2023-05-19T07:29:39.632Z,58.23
2023-05-19T07:32:06.654Z,58.38
2023-05-19T07:34:33.267Z,58.12
2023-05-19T07:37:00.289Z,57.93
2023-05-19T07:39:29.642Z,58.71
2023-05-19T07:41:56.601Z,57.77
2023-05-19T07:44:23.406Z,58.05
2023-05-19T07:46:50.075Z,58.50
2023-05-19T07:49:16.752Z,58.60
2023-05-19T07:51:43.523Z,58.09
2023-05-19T07:54:10.121Z,58.30
2023-05-19T07:56:36.800Z,58.84
2023-05-19T07:59:04.692Z,58.54
2023-05-19T08:01:32.454Z,58.75
2023-05-19T08:03:59.209Z,58.84
2023-05-19T08:06:25.941Z,60.07
2023-05-19T08:08:54.304Z,59.96
2023-05-19T08:11:21.567Z,60.06
2023-05-19T08:13:49.127Z,59.36
2023-05-19T08:16:18.876Z,60.59
2023-05-19T08:18:45.672Z,60.78
2023-05-19T08:21:12.323Z,60.04
2023-05-19T08:23:39.198Z,60.17
2023-05-19T08:26:05.858Z,60.07
2023-05-19T08:28:32.739Z,59.87
2023-05-19T08:30:59.419Z,59.60
2023-05-19T08:33:26.053Z,60.16
2023-05-19T08:35:52.910Z,59.63
2023-05-19T08:38:19.547Z,59.29
2023-05-19T08:40:48.387Z,59.63
2023-05-19T08:43:15.388Z,58.88
2023-05-19T08:45:48.261Z,59.12
2023-05-19T08:48:17.422Z,59.23
2023-05-19T08:50:51.849Z,58.97
2023-05-19T08:53:33.817Z,59.32
2023-05-19T08:56:16.738Z,59.26
2023-05-19T08:58:44.733Z,58.36
2023-05-19T09:01:14.557Z,59.67
2023-05-19T09:03:42.652Z,59.65
2023-05-19T09:06:13.862Z,59.18
2023-05-19T09:08:42.349Z,60.01
2023-05-19T09:11:09.474Z,59.65
2023-05-19T09:13:36.483Z,58.94
2023-05-19T09:16:03.656Z,60.17
2023-05-19T09:18:30.674Z,59.71
2023-05-19T09:21:02.717Z,59.44
2023-05-19T09:23:33.594Z,60.11
2023-05-19T09:26:08.190Z,60.22
2023-05-19T09:28:36.481Z,59.87
2023-05-19T09:31:08.535Z,59.92
2023-05-19T09:33:40.699Z,60.10
2023-05-19T09:36:10.872Z,60.21
2023-05-19T09:38:38.854Z,59.46
2023-05-19T09:41:07.167Z,59.94
2023-05-19T09:43:35.043Z,59.38
2023-05-19T09:46:06.807Z,59.47
2023-05-19T09:48:37.636Z,60.34
2023-05-19T09:51:06.371Z,60.36
2023-05-19T09:53:34.425Z,59.45
2023-05-19T09:56:02.086Z,59.16
2023-05-19T09:58:34.627Z,58.77
2023-05-19T10:01:01.656Z,58.98
2023-05-19T10:03:28.722Z,59.14
2023-05-19T10:05:56.136Z,58.43
2023-05-19T10:08:26.580Z,58.54
2023-05-19T10:10:53.966Z,59.11
2023-05-19T10:13:21.983Z,59.47
2023-05-19T10:15:58.010Z,59.45
2023-05-19T10:18:30.718Z,58.87
2023-05-19T10:20:58.215Z,57.86
2023-05-19T10:23:25.575Z,58.61
2023-05-19T10:25:57.713Z,58.57
2023-05-19T10:28:29.863Z,58.61
2023-05-19T10:31:00.435Z,59.20
2023-05-19T10:33:53.071Z,58.06
2023-05-19T10:36:32.137Z,57.30
2023-05-19T10:39:35.708Z,59.24
2023-05-19T10:42:11.573Z,58.61
2023-05-19T10:44:44.834Z,59.07
2023-05-19T10:47:12.449Z,59.07
2023-05-19T10:49:39.905Z,61.28
2023-05-19T10:52:26.013Z,61.53
2023-05-19T10:54:54.819Z,62.35
2023-05-19T10:57:33.207Z,64.39
2023-05-19T11:00:11.324Z,64.32
2023-05-19T11:02:43.250Z,61.37
2023-05-19T11:05:18.559Z,62.01
2023-05-19T11:07:56.374Z,62.09
2023-05-19T11:10:24.435Z,60.29
2023-05-19T11:12:52.388Z,60.01
2023-05-19T11:15:24.175Z,59.50
2023-05-19T11:17:51.182Z,58.34
2023-05-19T11:20:25.740Z,57.58
2023-05-19T11:23:18.440Z,56.76
2023-05-19T11:25:49.968Z,56.34
2023-05-19T11:28:19.678Z,57.04
2023-05-19T11:30:51.949Z,56.94
2023-05-19T11:33:20.316Z,57.87
2023-05-19T11:35:49.344Z,58.48
2023-05-19T11:38:18.320Z,59.00
2023-05-19T11:40:45.294Z,59.86
2023-05-19T11:43:12.067Z,60.86
2023-05-19T11:45:39.464Z,61.12
2023-05-19T11:48:06.914Z,61.17
2023-05-19T11:50:33.769Z,61.23
2023-05-19T11:53:01.729Z,61.16
2023-05-19T11:55:29.244Z,62.05
2023-05-19T11:58:05.777Z,61.22
2023-05-19T12:00:39.181Z,61.30
2023-05-19T12:03:06.295Z,60.08
2023-05-19T12:05:39.854Z,60.84
2023-05-19T12:08:07.831Z,61.89
2023-05-19T12:10:35.782Z,61.45
2023-05-19T12:13:03.274Z,60.53
2023-05-19T12:15:31.693Z,61.61
2023-05-19T12:18:00.343Z,60.81
2023-05-19T12:20:27.976Z,61.02
2023-05-19T12:22:59.220Z,61.11
2023-05-19T12:25:26.134Z,61.27
2023-05-19T12:27:58.240Z,61.14
2023-05-19T12:30:30.644Z,61.59
2023-05-19T12:32:58.218Z,61.81
2023-05-19T12:35:29.696Z,62.22
2023-05-19T12:37:56.434Z,62.43
2023-05-19T12:40:23.312Z,63.06
2023-05-19T12:42:53.454Z,62.42
2023-05-19T12:45:23.349Z,63.08
2023-05-19T12:47:51.360Z,64.02
2023-05-19T12:50:18.334Z,64.76
2023-05-19T12:52:47.749Z,65.16
2023-05-19T12:55:16.510Z,64.53
2023-05-19T12:57:49.884Z,66.83
2023-05-19T13:00:22.711Z,66.86
2023-05-19T13:03:06.649Z,68.16
2023-05-19T13:05:39.666Z,66.85
2023-05-19T13:08:08.745Z,67.01
2023-05-19T13:10:38.420Z,66.52
2023-05-19T13:13:05.837Z,68.11
2023-05-19T13:15:35.758Z,67.62
2023-05-19T13:18:07.252Z,71.35
2023-05-19T13:20:34.333Z,71.15
2023-05-19T13:23:01.546Z,72.20
2023-05-19T13:25:28.331Z,71.52
2023-05-19T13:27:55.232Z,71.99
2023-05-19T13:30:22.736Z,72.82
2023-05-19T13:32:49.794Z,73.47
2023-05-19T13:35:16.545Z,75.40
2023-05-19T13:37:43.427Z,73.21
2023-05-19T13:40:10.896Z,75.78
2023-05-19T13:42:38.092Z,76.61
2023-05-19T13:45:05.221Z,75.22
2023-05-19T13:47:31.878Z,74.56
2023-05-19T13:49:58.657Z,73.91
2023-05-19T13:52:26.410Z,75.46
2023-05-19T13:54:56.916Z,77.94
2023-05-19T13:57:24.510Z,80.36
2023-05-19T14:00:01.843Z,84.84
2023-05-19T14:02:30.429Z,95.27
2023-05-19T14:04:57.625Z,96.10
2023-05-19T14:07:25.748Z,98.92
2023-05-19T14:09:52.863Z,97.81
2023-05-19T14:12:21.583Z,100.00
2023-05-19T14:14:52.055Z,100.00
2023-05-19T14:17:18.737Z,100.00
2023-05-19T14:19:45.478Z,99.99
2023-05-19T14:22:13.547Z,100.00
2023-05-19T14:24:41.497Z,100.00
2023-05-19T14:27:08.235Z,97.05
2023-05-19T14:29:35.417Z,97.74
2023-05-19T14:32:03.152Z,100.00
2023-05-19T14:34:30.032Z,97.07
2023-05-19T14:36:56.733Z,96.18
2023-05-19T14:39:23.337Z,99.16
2023-05-19T14:41:54.251Z,97.92
2023-05-19T14:44:21.121Z,99.31
2023-05-19T14:46:47.838Z,98.67
2023-05-19T14:49:15.236Z,94.12
2023-05-19T14:51:41.835Z,93.30
2023-05-19T14:54:08.462Z,95.36
2023-05-19T14:56:35.145Z,96.44
2023-05-19T14:59:01.756Z,93.68
2023-05-19T15:01:28.463Z,96.64
2023-05-19T15:03:55.201Z,97.57
2023-05-19T15:06:22.285Z,99.34
2023-05-19T15:08:48.928Z,98.31
2023-05-19T15:11:15.685Z,99.67
2023-05-19T15:13:42.325Z,97.81
2023-05-19T15:16:17.684Z,99.51
2023-05-19T15:18:45.145Z,98.96
2023-05-19T15:21:12.100Z,97.04
2023-05-19T15:23:38.752Z,99.96
2023-05-19T15:26:05.740Z,97.99
2023-05-19T15:28:32.456Z,100.00
2023-05-19T15:30:59.142Z,100.00
2023-05-19T15:33:25.844Z,100.00
2023-05-19T15:35:52.601Z,100.00
2023-05-19T15:38:20.090Z,100.00
2023-05-19T15:40:47.018Z,100.00
2023-05-19T15:43:14.020Z,100.00
2023-05-19T15:45:41.326Z,100.00
2023-05-19T15:48:08.509Z,100.00
2023-05-19T15:50:36.160Z,100.00
2023-05-19T15:53:03.383Z,100.00
2023-05-19T15:55:30.077Z,100.00
2023-05-19T15:57:56.757Z,100.00
2023-05-19T16:00:23.724Z,100.00
2023-05-19T16:02:50.710Z,100.00
2023-05-19T16:05:17.827Z,100.00
2023-05-19T16:07:45.029Z,100.00
2023-05-19T16:10:11.911Z,100.00
2023-05-19T16:12:38.567Z,100.00
2023-05-19T16:15:05.833Z,100.00
2023-05-19T16:17:32.497Z,100.00
2023-05-19T16:19:59.185Z,100.00
2023-05-19T16:22:26.113Z,100.00
2023-05-19T16:24:52.789Z,100.00
2023-05-19T16:27:19.439Z,99.44
2023-05-19T16:29:46.390Z,100.00
2023-05-19T16:32:13.272Z,100.00
2023-05-19T16:34:40.276Z,100.00
2023-05-19T16:37:07.036Z,100.00
2023-05-19T16:39:37.271Z,100.00
2023-05-19T16:42:04.766Z,100.00
2023-05-19T16:44:31.565Z,100.00
2023-05-19T16:46:58.364Z,100.00
2023-05-19T16:49:25.026Z,100.00
2023-05-19T16:51:53.073Z,100.00
2023-05-19T16:54:20.011Z,100.00
2023-05-19T16:56:46.704Z,100.00
2023-05-19T16:59:13.846Z,100.00
2023-05-19T17:01:40.750Z,100.00
2023-05-19T17:04:07.507Z,100.00
2023-05-19T17:06:34.321Z,100.00
2023-05-19T17:09:01.080Z,100.00
2023-05-19T17:11:28.097Z,96.54
2023-05-19T17:13:54.725Z,94.17
2023-05-19T17:16:21.721Z,93.55
2023-05-19T17:18:48.493Z,91.41
2023-05-19T17:21:15.369Z,93.91
2023-05-19T17:23:42.031Z,96.61
2023-05-19T17:26:08.954Z,94.80
2023-05-19T17:28:35.771Z,94.61
2023-05-19T17:31:09.721Z,94.97
2023-05-19T17:33:36.590Z,96.44
2023-05-19T17:36:04.406Z,97.27
2023-05-19T17:38:32.401Z,99.93
2023-05-19T17:41:02.463Z,100.00
2023-05-19T17:43:29.356Z,100.00
2023-05-19T17:45:57.227Z,100.00
2023-05-19T17:48:25.883Z,100.00
2023-05-19T17:50:52.574Z,100.00
2023-05-19T17:53:19.559Z,100.00
2023-05-19T17:55:51.499Z,100.00
2023-05-19T17:58:19.355Z,100.00
2023-05-19T18:00:46.399Z,100.00
2023-05-19T18:03:13.304Z,100.00
2023-05-19T18:05:40.564Z,100.00
2023-05-19T18:08:09.394Z,100.00
2023-05-19T18:10:38.115Z,100.00
2023-05-19T18:13:05.425Z,99.79
2023-05-19T18:15:32.255Z,100.00
2023-05-19T18:17:59.250Z,99.68
2023-05-19T18:20:25.889Z,100.00
2023-05-19T18:22:52.631Z,98.07
2023-05-19T18:25:20.124Z,100.00
2023-05-19T18:27:47.970Z,98.61
2023-05-19T18:30:14.666Z,99.14
2023-05-19T18:32:41.535Z,99.50
2023-05-19T18:35:09.285Z,100.00
2023-05-19T18:37:35.975Z,100.00
2023-05-19T18:40:02.553Z,100.00
2023-05-19T18:42:29.269Z,100.00
2023-05-19T18:44:55.951Z,100.00
2023-05-19T18:47:23.222Z,100.00
2023-05-19T18:49:50.199Z,100.00
2023-05-19T18:52:16.931Z,100.00
2023-05-19T18:54:46.422Z,100.00
2023-05-19T18:57:14.309Z,100.00
2023-05-19T18:59:41.250Z,100.00
2023-05-19T19:02:08.367Z,100.00
2023-05-19T19:04:35.064Z,100.00
2023-05-19T19:07:01.796Z,100.00
2023-05-19T19:09:28.386Z,100.00
2023-05-19T19:11:55.641Z,100.00
2023-05-19T19:14:23.359Z,100.00
2023-05-19T19:16:51.099Z,100.00
2023-05-19T19:19:18.553Z,100.00
2023-05-19T19:21:45.869Z,100.00
2023-05-19T19:24:14.249Z,100.00
2023-05-19T19:26:40.880Z,100.00
2023-05-19T19:29:08.025Z,100.00
2023-05-19T19:31:35.785Z,97.01
2023-05-19T19:34:03.532Z,95.28
2023-05-19T19:36:30.399Z,96.86
2023-05-19T19:38:57.429Z,93.63
2023-05-19T19:41:25.768Z,94.88
2023-05-19T19:43:53.108Z,90.19
2023-05-19T19:46:19.887Z,88.94
2023-05-19T19:48:46.464Z,86.47
2023-05-19T19:51:13.170Z,86.18
2023-05-19T19:53:39.861Z,84.56
2023-05-19T19:56:07.212Z,84.60
2023-05-19T19:58:34.145Z,84.39
2023-05-19T20:01:03.887Z,84.11
2023-05-19T20:03:31.789Z,84.46
2023-05-19T20:05:59.015Z,84.38
2023-05-19T20:08:26.728Z,84.34
2023-05-19T20:10:54.590Z,85.45
2023-05-19T20:13:22.150Z,85.56
2023-05-19T20:15:48.958Z,86.73
2023-05-19T20:18:15.844Z,86.51
2023-05-19T20:20:42.743Z,88.64
2023-05-19T20:23:09.455Z,89.48
2023-05-19T20:25:57.893Z,89.42
2023-05-19T20:28:29.642Z,91.39
2023-05-19T20:31:00.381Z,92.50
2023-05-19T20:33:27.903Z,93.04
2023-05-19T20:35:54.528Z,94.52
2023-05-19T20:38:21.302Z,95.75
2023-05-19T20:40:48.029Z,96.71
2023-05-19T20:43:14.815Z,95.95
2023-05-19T20:45:44.965Z,98.67
2023-05-19T20:48:11.945Z,99.90
2023-05-19T20:50:39.774Z,98.82
2023-05-19T20:53:07.534Z,99.81
2023-05-19T20:55:36.298Z,98.30
2023-05-19T20:58:02.959Z,100.00
2023-05-19T21:00:30.486Z,98.77
2023-05-19T21:02:57.476Z,99.41
2023-05-19T21:05:24.512Z,99.27
2023-05-19T21:07:51.203Z,98.59
2023-05-19T21:10:18.064Z,98.35
2023-05-19T21:12:44.865Z,99.57
2023-05-19T21:15:11.817Z,100.00
2023-05-19T21:17:38.596Z,100.00
2023-05-19T21:20:06.058Z,100.00
2023-05-19T21:22:32.665Z,100.00
2023-05-19T21:24:59.500Z,100.00
2023-05-19T21:27:26.106Z,100.00
2023-05-19T21:29:54.125Z,100.00
2023-05-19T21:32:22.052Z,98.90
2023-05-19T21:34:48.763Z,98.75
2023-05-19T21:37:17.281Z,99.16
2023-05-19T21:39:45.306Z,96.38
2023-05-19T21:42:11.904Z,90.24
2023-05-19T21:44:38.710Z,89.75
2023-05-19T21:47:05.492Z,86.09
2023-05-19T21:49:32.223Z,85.54
2023-05-19T21:51:58.923Z,85.21
2023-05-19T21:54:25.663Z,84.23
2023-05-19T21:56:52.404Z,83.41
2023-05-19T21:59:23.030Z,83.17
2023-05-19T22:01:49.777Z,80.71
2023-05-19T22:04:18.492Z,80.10
2023-05-19T22:06:45.646Z,78.91
2023-05-19T22:09:12.823Z,78.03
2023-05-19T22:11:39.753Z,77.58
2023-05-19T22:14:06.863Z,78.73
2023-05-19T22:16:38.577Z,77.29
2023-05-19T22:19:05.372Z,77.23
2023-05-19T22:21:32.162Z,76.56
2023-05-19T22:23:58.792Z,75.70
2023-05-19T22:26:26.032Z,74.33
2023-05-19T22:28:53.343Z,74.46
2023-05-19T22:31:20.039Z,74.27
2023-05-19T22:33:46.626Z,74.67
2023-05-19T22:36:14.295Z,73.92
2023-05-19T22:38:41.347Z,74.56
2023-05-19T22:41:07.947Z,73.93
2023-05-19T22:43:34.810Z,74.59
2023-05-19T22:46:01.437Z,76.13
2023-05-19T22:48:28.087Z,74.72
2023-05-19T22:50:54.749Z,74.18
2023-05-19T22:53:21.376Z,73.95
2023-05-19T22:55:48.037Z,73.66
2023-05-19T22:58:14.802Z,72.65
2023-05-19T23:00:41.455Z,73.71
2023-05-19T23:03:08.168Z,71.99
2023-05-19T23:05:34.994Z,71.30
2023-05-19T23:08:01.847Z,71.48
2023-05-19T23:10:28.478Z,71.62
2023-05-19T23:12:55.297Z,70.85
2023-05-19T23:15:21.985Z,70.46
2023-05-19T23:17:48.665Z,69.46
2023-05-19T23:20:15.457Z,70.12
2023-05-19T23:22:42.296Z,69.88
2023-05-19T23:25:09.100Z,69.31
2023-05-19T23:27:35.994Z,69.55
2023-05-19T23:30:03.655Z,69.08
2023-05-19T23:32:30.367Z,70.07
2023-05-19T23:34:56.965Z,69.07
2023-05-19T23:37:23.579Z,68.61
2023-05-19T23:39:50.480Z,69.41
2023-05-19T23:42:17.197Z,67.46
2023-05-19T23:44:43.806Z,68.06
2023-05-19T23:47:10.383Z,67.35
2023-05-19T23:49:37.011Z,68.17
2023-05-19T23:52:03.664Z,67.84
2023-05-19T23:54:31.102Z,68.06
2023-05-19T23:56:58.498Z,67.84
2023-05-19T23:59:25.323Z,68.04
